LIRI

Salerno Costa d'Amalfi Airport

Airport
ICAO code
LIRI
IATA Code
QSR
Summary
ICAO Region
EUR
ICAO Territory
Location

Bellizzi, Campania

Serving
Salerno
Elevation
131 ft
Coordinates
40° 37' 8" N , 14° 54' 40" E
KCC
Metar
Observation
LIRI 031550Z 23007KT CAVOK 14/09 Q1026
Station
Pontecagnano Air Force Base
Date/Time
2023-02-03 15:50:00
Wind direction
230°
Wind speed
07 kts
Lowest cloud amount
clouds and visibility OK
Temperature
14°C
Dew point
9°C
Humidity
71%
QNH
1026 hPa
Weather condition
n/a

The Salerno - Costa d'Amalfi Airport, located in the municipality of Pontecagnano Faiano and close to Bellizzi, is an airport in southern Italy.

Climatology

Warm mediterranean climate (Köppen climate classification Csa)

Runways

Designator Length Width Surface Rops
5/23 1395 45 ASP No/No

Airport map

Aerial View

SKYbrary Partners:

Safety knowledge contributed by: